Interlaken, Switzerland
Current Conditions -  °F | °C
As of 6:50 AM on Sunday 21 Dec 2014 (Local Time) from LSMM Reporting Station
Few Clouds Few Clouds  
Wind Chill: 34°   Ceiling: Unl
Heat Index: 34°   Visibility: 6mi
Dew Point: 30°   Wind: 1mph
Humidity: 87%   Direction: NA
Pressure: 30.53"   Gusts: NA
Location:  46.69°N, 7.86°E
Report Text: LSMM 210550Z AUTO VRB01KT 9999NDV FEW050 01/M01 Q1034 RMK BLU
Loading
Personal Weather Stations






























Interactive Weather Map New forecast layout! Learn more

10-Day Weather Forecast

Advertisements
Track Severe Weather on mobile